createdAt,value
2023-04-22T00:00:14.496Z,6.77
2023-04-22T00:02:44.014Z,6.30
2023-04-22T00:05:15.169Z,6.53
2023-04-22T00:07:45.755Z,6.73
2023-04-22T00:10:14.347Z,6.10
2023-04-22T00:12:44.090Z,6.97
2023-04-22T00:15:13.152Z,6.77
2023-04-22T00:17:42.942Z,6.73
2023-04-22T00:20:12.773Z,7.17
2023-04-22T00:22:41.111Z,6.23
2023-04-22T00:25:10.374Z,5.90
2023-04-22T00:27:38.669Z,7.50
2023-04-22T00:30:09.633Z,5.97
2023-04-22T00:32:38.367Z,6.20
2023-04-22T00:35:07.647Z,7.40
2023-04-22T00:37:36.136Z,6.70
2023-04-22T00:40:04.992Z,7.60
2023-04-22T00:42:33.840Z,7.10
2023-04-22T00:45:02.878Z,6.77
2023-04-22T00:47:33.515Z,6.77
2023-04-22T00:50:02.189Z,7.97
2023-04-22T00:52:30.555Z,7.23
2023-04-22T00:54:58.853Z,6.97
2023-04-22T00:57:28.418Z,6.73
2023-04-22T00:59:56.871Z,6.83
2023-04-22T01:02:26.153Z,7.57
2023-04-22T01:04:56.083Z,7.50
2023-04-22T01:07:25.171Z,7.00
2023-04-22T01:09:53.785Z,7.33
2023-04-22T01:12:22.320Z,7.60
2023-04-22T01:14:51.600Z,8.57
2023-04-22T01:17:22.228Z,7.47
2023-04-22T01:19:50.700Z,8.03
2023-04-22T01:22:20.581Z,7.00
2023-04-22T01:24:50.680Z,7.70
2023-04-22T01:27:19.503Z,7.10
2023-04-22T01:29:48.729Z,7.23
2023-04-22T01:32:17.175Z,6.87
2023-04-22T01:34:45.713Z,7.47
2023-04-22T01:37:14.105Z,7.97
2023-04-22T01:39:42.814Z,7.30
2023-04-22T01:42:13.066Z,7.17
2023-04-22T01:44:41.466Z,6.93
2023-04-22T01:47:10.126Z,7.33
2023-04-22T01:49:38.664Z,7.30
2023-04-22T01:52:07.212Z,7.03
2023-04-22T01:54:35.597Z,7.60
2023-04-22T01:57:10.159Z,7.07
2023-04-22T01:59:39.999Z,7.30
2023-04-22T02:02:08.591Z,7.63
2023-04-22T02:04:37.184Z,7.10
2023-04-22T02:07:05.527Z,7.43
2023-04-22T02:09:36.719Z,7.80
2023-04-22T02:12:05.697Z,6.77
2023-04-22T02:14:33.888Z,7.03
2023-04-22T02:17:06.310Z,6.70
2023-04-22T02:19:34.929Z,7.23
2023-04-22T02:22:03.231Z,7.00
2023-04-22T02:24:31.623Z,6.87
2023-04-22T02:27:00.467Z,7.77
2023-04-22T02:29:29.643Z,7.07
2023-04-22T02:32:00.033Z,6.60
2023-04-22T02:34:30.260Z,7.30
2023-04-22T02:36:58.485Z,7.17
2023-04-22T02:39:26.957Z,6.40
2023-04-22T02:41:55.790Z,7.50
2023-04-22T02:44:24.262Z,7.27
2023-04-22T02:46:52.697Z,6.77
2023-04-22T02:49:20.962Z,6.90
2023-04-22T02:51:51.044Z,6.90
2023-04-22T02:54:19.454Z,7.07
2023-04-22T02:56:47.837Z,6.80
2023-04-22T02:59:16.151Z,6.53
2023-04-22T03:01:44.401Z,7.20
2023-04-22T03:04:22.107Z,6.03
2023-04-22T03:06:52.097Z,6.67
2023-04-22T03:09:20.443Z,6.90
2023-04-22T03:11:48.811Z,7.17
2023-04-22T03:14:17.893Z,6.63
2023-04-22T03:16:46.217Z,7.47
2023-04-22T03:19:16.570Z,6.50
2023-04-22T03:21:44.900Z,6.87
2023-04-22T03:24:14.770Z,6.30
2023-04-22T03:26:48.973Z,7.10
2023-04-22T03:29:17.525Z,6.13
2023-04-22T03:31:46.051Z,6.83
2023-04-22T03:34:14.484Z,6.40
2023-04-22T03:36:44.114Z,7.67
2023-04-22T03:39:12.499Z,6.97
2023-04-22T03:41:43.611Z,7.17
2023-04-22T03:44:12.336Z,6.27
2023-04-22T03:46:40.654Z,6.73
2023-04-22T03:49:17.240Z,7.60
2023-04-22T03:51:46.142Z,7.37
2023-04-22T03:54:19.153Z,7.23
2023-04-22T03:56:53.055Z,6.60
2023-04-22T03:59:23.158Z,7.10
2023-04-22T04:01:53.949Z,6.80
2023-04-22T04:04:29.719Z,6.70
2023-04-22T04:07:02.407Z,7.20
2023-04-22T04:09:31.053Z,6.73
2023-04-22T04:12:01.310Z,7.30
2023-04-22T04:14:33.470Z,6.20
2023-04-22T04:17:03.788Z,7.17
2023-04-22T04:19:35.103Z,6.87
2023-04-22T04:22:04.163Z,8.27
2023-04-22T04:24:42.451Z,7.40
2023-04-22T04:27:19.546Z,8.27
2023-04-22T04:29:53.546Z,7.20
2023-04-22T04:32:35.876Z,6.93
2023-04-22T04:35:08.986Z,6.87
2023-04-22T04:37:40.447Z,6.37
2023-04-22T04:40:12.441Z,6.93
2023-04-22T04:43:08.482Z,6.83
2023-04-22T04:45:54.282Z,6.80
2023-04-22T04:48:29.292Z,7.83
2023-04-22T04:51:08.070Z,7.77
2023-04-22T04:53:41.833Z,7.63
2023-04-22T04:56:10.375Z,7.13
2023-04-22T04:58:40.496Z,7.10
2023-04-22T05:01:17.758Z,6.77
2023-04-22T05:03:47.901Z,7.60
2023-04-22T05:06:18.825Z,7.43
2023-04-22T05:09:01.819Z,7.73
2023-04-22T05:11:30.819Z,7.77
2023-04-22T05:14:02.593Z,7.60
2023-04-22T05:16:38.335Z,8.03
2023-04-22T05:19:06.795Z,7.63
2023-04-22T05:21:36.257Z,8.13
2023-04-22T05:24:05.719Z,8.77
2023-04-22T05:26:34.049Z,8.93
2023-04-22T05:29:07.235Z,9.17
2023-04-22T05:31:35.997Z,8.83
2023-04-22T05:34:04.385Z,9.03
2023-04-22T05:36:33.567Z,8.03
2023-04-22T05:39:02.096Z,9.00
2023-04-22T05:41:32.120Z,7.93
2023-04-22T05:44:00.901Z,9.03
2023-04-22T05:46:32.457Z,9.00
2023-04-22T05:49:01.179Z,8.90
2023-04-22T05:51:48.261Z,8.60
2023-04-22T05:54:19.705Z,8.20
2023-04-22T05:56:48.114Z,8.90
2023-04-22T05:59:19.503Z,8.37
2023-04-22T06:01:50.468Z,8.53
2023-04-22T06:04:21.697Z,7.63
2023-04-22T06:06:53.875Z,8.27
2023-04-22T06:09:22.601Z,6.97
2023-04-22T06:11:51.329Z,6.53
2023-04-22T06:14:19.948Z,6.90
2023-04-22T06:16:52.962Z,7.47
2023-04-22T06:19:22.091Z,6.80
2023-04-22T06:21:50.706Z,7.23
2023-04-22T06:24:23.756Z,6.93
2023-04-22T06:26:52.625Z,6.67
2023-04-22T06:29:21.508Z,7.40
2023-04-22T06:31:51.662Z,6.80
2023-04-22T06:34:22.883Z,5.93
2023-04-22T06:36:53.553Z,7.47
2023-04-22T06:39:22.932Z,7.60
2023-04-22T06:42:09.243Z,7.37
2023-04-22T06:45:00.246Z,7.00
2023-04-22T06:47:50.021Z,7.07
2023-04-22T06:50:23.695Z,6.60
2023-04-22T06:52:59.366Z,7.33
2023-04-22T06:55:27.877Z,7.07
2023-04-22T06:57:56.336Z,6.60
2023-04-22T07:00:25.760Z,6.73
2023-04-22T07:02:55.895Z,7.00
2023-04-22T07:05:24.680Z,6.17
2023-04-22T07:07:53.523Z,6.47
2023-04-22T07:10:24.790Z,6.57
2023-04-22T07:13:11.982Z,7.00
2023-04-22T07:15:40.626Z,6.43
2023-04-22T07:18:10.373Z,6.80
2023-04-22T07:20:38.729Z,6.50
2023-04-22T07:23:07.269Z,6.30
2023-04-22T07:25:35.858Z,6.77
2023-04-22T07:28:06.956Z,5.50
2023-04-22T07:30:35.579Z,6.27
2023-04-22T07:33:04.006Z,5.67
2023-04-22T07:35:34.069Z,6.47
2023-04-22T07:38:02.470Z,6.05
2023-04-22T07:40:30.781Z,5.95
2023-04-22T07:42:59.612Z,6.53
2023-04-22T07:45:28.197Z,6.55
2023-04-22T07:47:56.922Z,6.05
2023-04-22T07:50:25.454Z,5.70
2023-04-22T07:52:55.315Z,5.70
2023-04-22T07:55:23.687Z,5.57
2023-04-22T07:57:51.985Z,5.43
2023-04-22T08:00:20.233Z,6.13
2023-04-22T08:02:48.956Z,5.82
2023-04-22T08:05:17.589Z,5.50
2023-04-22T08:07:46.532Z,5.85
2023-04-22T08:10:16.420Z,5.30
2023-04-22T08:12:45.104Z,4.82
2023-04-22T08:15:13.849Z,5.00
2023-04-22T08:17:42.173Z,5.13
2023-04-22T08:20:11.639Z,5.40
2023-04-22T08:22:40.445Z,6.00
2023-04-22T08:25:09.949Z,5.70
2023-04-22T08:27:40.332Z,4.82
2023-04-22T08:30:09.628Z,5.65
2023-04-22T08:32:38.750Z,4.95
2023-04-22T08:35:07.521Z,5.00
2023-04-22T08:37:36.573Z,5.03
2023-04-22T08:40:06.039Z,4.85
2023-04-22T08:42:34.852Z,4.60
2023-04-22T08:45:06.101Z,4.70
2023-04-22T08:47:36.117Z,4.97
2023-04-22T08:50:06.502Z,5.18
2023-04-22T08:52:35.130Z,4.82
2023-04-22T08:55:03.971Z,4.45
2023-04-22T08:57:33.633Z,4.40
2023-04-22T09:00:02.221Z,4.07
2023-04-22T09:02:34.104Z,4.32
2023-04-22T09:05:04.302Z,4.60
2023-04-22T09:07:33.898Z,4.38
2023-04-22T09:10:02.169Z,4.13
2023-04-22T09:12:30.614Z,5.05
2023-04-22T09:14:58.956Z,4.38
2023-04-22T09:17:39.462Z,4.47
2023-04-22T09:20:09.872Z,4.50
2023-04-22T09:22:43.445Z,3.97
2023-04-22T09:25:17.957Z,4.13
2023-04-22T09:27:50.617Z,4.00
2023-04-22T09:30:20.504Z,6.72
2023-04-22T09:32:58.060Z,3.92
2023-04-22T09:35:31.249Z,4.10
2023-04-22T09:38:01.288Z,4.22
2023-04-22T09:40:31.667Z,3.53
2023-04-22T09:43:02.016Z,3.78
2023-04-22T09:45:32.234Z,7.43
2023-04-22T09:48:09.460Z,4.35
2023-04-22T09:50:38.738Z,3.72
2023-04-22T09:53:08.969Z,3.65
2023-04-22T09:55:40.022Z,3.63
2023-04-22T09:58:10.314Z,4.30
2023-04-22T10:00:42.649Z,4.10
2023-04-22T10:03:13.046Z,3.80
2023-04-22T10:05:42.443Z,4.03
2023-04-22T10:08:11.809Z,3.72
2023-04-22T10:10:41.286Z,4.20
2023-04-22T10:13:10.695Z,3.60
2023-04-22T10:15:42.565Z,4.00
2023-04-22T10:18:18.004Z,3.78
2023-04-22T10:20:47.887Z,4.10
2023-04-22T10:23:19.747Z,3.38
2023-04-22T10:25:51.580Z,3.65
2023-04-22T10:28:22.162Z,4.40
2023-04-22T10:30:51.787Z,3.88
2023-04-22T10:33:40.884Z,3.63
2023-04-22T10:36:11.777Z,4.03
2023-04-22T10:38:42.362Z,3.30
2023-04-22T10:41:15.725Z,3.90
2023-04-22T10:43:45.727Z,3.85
2023-04-22T10:46:52.473Z,3.88
2023-04-22T10:49:24.345Z,4.05
2023-04-22T10:51:54.447Z,4.03
2023-04-22T10:54:58.204Z,3.67
2023-04-22T10:57:36.457Z,3.63
2023-04-22T11:00:25.785Z,3.65
2023-04-22T11:02:56.438Z,3.78
2023-04-22T11:05:28.867Z,3.90
2023-04-22T11:08:03.411Z,3.38
2023-04-22T11:10:44.085Z,3.58
2023-04-22T11:13:15.382Z,3.70
2023-04-22T11:15:45.877Z,3.47
2023-04-22T11:18:21.464Z,3.45
2023-04-22T11:20:53.643Z,3.38
2023-04-22T11:23:25.330Z,3.75
2023-04-22T11:25:58.941Z,3.63
2023-04-22T11:28:27.794Z,3.45
2023-04-22T11:31:03.485Z,3.83
2023-04-22T11:33:34.168Z,3.53
2023-04-22T11:36:03.929Z,3.80
2023-04-22T11:38:33.242Z,3.75
2023-04-22T11:41:01.529Z,4.13
2023-04-22T11:43:29.844Z,4.10
2023-04-22T11:45:59.282Z,3.17
2023-04-22T11:48:27.821Z,3.20
2023-04-22T11:51:11.959Z,3.40
2023-04-22T11:53:41.470Z,3.45
2023-04-22T11:56:09.948Z,2.85
2023-04-22T11:58:41.838Z,3.30
2023-04-22T12:01:14.202Z,3.30
2023-04-22T12:03:42.935Z,3.50
2023-04-22T12:06:12.861Z,2.83
2023-04-22T12:08:44.434Z,3.30
2023-04-22T12:11:14.213Z,3.00
2023-04-22T12:13:45.711Z,3.28
2023-04-22T12:16:16.665Z,2.92
2023-04-22T12:18:50.934Z,3.40
2023-04-22T12:21:21.936Z,3.75
2023-04-22T12:23:52.574Z,3.25
2023-04-22T12:26:26.622Z,3.83
2023-04-22T12:28:58.135Z,3.08
2023-04-22T12:31:26.960Z,3.58
2023-04-22T12:33:55.838Z,3.47
2023-04-22T12:36:26.411Z,3.00
2023-04-22T12:38:54.710Z,3.20
2023-04-22T12:41:23.834Z,3.17
2023-04-22T12:43:52.872Z,3.40
2023-04-22T12:46:21.451Z,2.97
2023-04-22T12:48:49.876Z,3.28
2023-04-22T12:51:18.320Z,3.47
2023-04-22T12:53:48.106Z,3.30
2023-04-22T12:56:16.863Z,3.22
2023-04-22T12:58:45.179Z,3.25
2023-04-22T13:01:13.479Z,3.25
2023-04-22T13:03:42.037Z,3.25
2023-04-22T13:06:10.832Z,3.08
2023-04-22T13:08:39.264Z,2.92
2023-04-22T13:11:12.074Z,3.22
2023-04-22T13:13:40.602Z,3.20
2023-04-22T13:16:09.195Z,3.25
2023-04-22T13:18:37.967Z,3.05
2023-04-22T13:21:07.442Z,3.40
2023-04-22T13:23:35.822Z,2.90
2023-04-22T13:26:04.294Z,2.70
2023-04-22T13:28:34.261Z,3.30
2023-04-22T13:31:02.981Z,3.65
2023-04-22T13:33:32.555Z,3.45
2023-04-22T13:36:00.865Z,3.20
2023-04-22T13:38:29.313Z,2.85
2023-04-22T13:40:58.033Z,3.88
2023-04-22T13:43:26.405Z,3.22
2023-04-22T13:45:56.573Z,3.20
2023-04-22T13:48:25.591Z,3.03
2023-04-22T13:50:54.300Z,3.13
2023-04-22T13:53:23.160Z,3.05
2023-04-22T13:55:51.483Z,3.22
2023-04-22T13:58:19.933Z,3.58
2023-04-22T14:00:50.680Z,3.50
2023-04-22T14:03:20.842Z,3.20
2023-04-22T14:05:49.295Z,2.85
2023-04-22T14:08:17.980Z,3.00
2023-04-22T14:10:46.326Z,3.05
2023-04-22T14:13:14.864Z,3.30
2023-04-22T14:15:45.336Z,3.20
2023-04-22T14:18:13.975Z,2.53
2023-04-22T14:20:45.310Z,2.80
2023-04-22T14:23:13.568Z,3.47
2023-04-22T14:25:41.924Z,3.03
2023-04-22T14:28:10.434Z,3.08
2023-04-22T14:30:38.955Z,3.40
2023-04-22T14:33:07.964Z,2.83
2023-04-22T14:35:36.789Z,3.58
2023-04-22T14:38:08.431Z,3.17
2023-04-22T14:40:37.265Z,2.50
2023-04-22T14:43:07.763Z,2.90
2023-04-22T14:45:36.233Z,3.15
2023-04-22T14:48:04.859Z,2.70
2023-04-22T14:50:34.190Z,2.85
2023-04-22T14:53:02.602Z,3.25
2023-04-22T14:55:32.759Z,3.03
2023-04-22T14:58:01.089Z,2.78
2023-04-22T15:00:29.785Z,2.88
2023-04-22T15:02:58.374Z,2.97
2023-04-22T15:05:26.883Z,2.80
2023-04-22T15:07:55.499Z,2.65
2023-04-22T15:10:24.015Z,2.88
2023-04-22T15:12:53.590Z,2.88
2023-04-22T15:15:21.930Z,2.95
2023-04-22T15:17:50.291Z,2.97
2023-04-22T15:20:18.735Z,3.00
2023-04-22T15:22:47.610Z,3.00
2023-04-22T15:25:18.018Z,2.63
2023-04-22T15:27:46.706Z,3.08
2023-04-22T15:30:16.803Z,3.15
2023-04-22T15:32:45.345Z,2.90
2023-04-22T15:35:14.302Z,2.55
2023-04-22T15:37:42.822Z,2.53
2023-04-22T15:40:11.800Z,3.00
2023-04-22T15:42:40.088Z,2.97
2023-04-22T15:45:09.562Z,2.30
2023-04-22T15:47:41.887Z,2.95
2023-04-22T15:50:11.859Z,2.80
2023-04-22T15:52:40.718Z,3.28
2023-04-22T15:55:09.643Z,3.15
2023-04-22T15:57:38.039Z,3.08
2023-04-22T16:00:12.410Z,3.08
2023-04-22T16:02:46.648Z,2.78
2023-04-22T16:05:15.196Z,3.03
2023-04-22T16:07:43.607Z,2.72
2023-04-22T16:10:12.875Z,3.35
2023-04-22T16:12:41.337Z,3.00
2023-04-22T16:15:11.763Z,3.00
2023-04-22T16:17:40.326Z,2.83
2023-04-22T16:20:12.014Z,3.05
2023-04-22T16:22:40.548Z,3.05
2023-04-22T16:25:10.723Z,3.20
2023-04-22T16:27:39.145Z,2.70
2023-04-22T16:30:08.516Z,3.25
2023-04-22T16:32:37.448Z,2.90
2023-04-22T16:35:06.619Z,3.08
2023-04-22T16:37:36.945Z,3.42
2023-04-22T16:40:06.517Z,2.95
2023-04-22T16:42:35.193Z,3.03
2023-04-22T16:45:03.481Z,3.83
2023-04-22T16:47:32.042Z,3.03
2023-04-22T16:50:00.816Z,3.08
2023-04-22T16:52:29.875Z,3.15
2023-04-22T16:55:00.525Z,3.20
2023-04-22T16:57:28.967Z,2.83
2023-04-22T16:59:57.532Z,2.92
2023-04-22T17:02:26.137Z,3.30
2023-04-22T17:04:54.936Z,3.38
2023-04-22T17:07:23.784Z,3.20
2023-04-22T17:09:52.159Z,3.17
2023-04-22T17:12:21.938Z,3.20
2023-04-22T17:14:59.470Z,3.30
2023-04-22T17:17:29.809Z,3.35
2023-04-22T17:19:58.785Z,3.05
2023-04-22T17:22:27.365Z,2.97
2023-04-22T17:24:56.868Z,3.63
2023-04-22T17:27:26.806Z,3.15
2023-04-22T17:29:55.092Z,3.22
2023-04-22T17:32:23.610Z,3.50
2023-04-22T17:34:52.549Z,3.35
2023-04-22T17:37:20.990Z,3.58
2023-04-22T17:39:49.364Z,3.63
2023-04-22T17:42:18.086Z,3.20
2023-04-22T17:44:48.151Z,3.40
2023-04-22T17:47:16.893Z,3.65
2023-04-22T17:49:45.368Z,3.60
2023-04-22T17:52:14.142Z,4.20
2023-04-22T17:54:45.230Z,3.90
2023-04-22T17:57:13.706Z,3.63
2023-04-22T17:59:42.248Z,3.97
2023-04-22T18:02:13.634Z,3.47
2023-04-22T18:04:41.998Z,3.43
2023-04-22T18:07:10.489Z,3.03
2023-04-22T18:09:39.551Z,3.37
2023-04-22T18:12:08.403Z,4.00
2023-04-22T18:14:37.018Z,3.90
2023-04-22T18:17:08.803Z,4.67
2023-04-22T18:19:40.985Z,5.23
2023-04-22T18:22:14.299Z,4.90
2023-04-22T18:24:43.407Z,4.13
2023-04-22T18:27:12.081Z,4.20
2023-04-22T18:29:40.853Z,4.73
2023-04-22T18:32:10.082Z,4.07
2023-04-22T18:34:42.790Z,5.07
2023-04-22T18:37:11.498Z,4.83
2023-04-22T18:39:40.428Z,4.10
2023-04-22T18:42:12.158Z,4.47
2023-04-22T18:44:41.217Z,4.80
2023-04-22T18:47:10.513Z,4.77
2023-04-22T18:49:39.184Z,4.07
2023-04-22T18:52:09.137Z,4.30
2023-04-22T18:54:41.185Z,5.13
2023-04-22T18:57:10.239Z,4.27
2023-04-22T18:59:38.832Z,4.40
2023-04-22T19:02:07.906Z,4.20
2023-04-22T19:04:37.032Z,4.03
2023-04-22T19:07:06.193Z,4.07
2023-04-22T19:09:35.996Z,4.03
2023-04-22T19:12:04.629Z,4.13
2023-04-22T19:14:33.241Z,4.30
2023-04-22T19:17:01.752Z,4.63
2023-04-22T19:19:30.056Z,4.50
2023-04-22T19:21:58.523Z,4.00
2023-04-22T19:24:32.135Z,4.30
2023-04-22T19:27:03.225Z,4.23
2023-04-22T19:29:31.913Z,4.17
2023-04-22T19:32:04.053Z,4.40
2023-04-22T19:34:33.145Z,4.67
2023-04-22T19:37:03.425Z,4.60
2023-04-22T19:39:32.507Z,4.57
2023-04-22T19:42:03.360Z,5.17
2023-04-22T19:44:32.062Z,4.87
2023-04-22T19:47:01.771Z,4.80
2023-04-22T19:49:32.384Z,4.50
2023-04-22T19:52:03.663Z,4.83
2023-04-22T19:54:35.066Z,5.00
2023-04-22T19:57:06.754Z,4.43
2023-04-22T19:59:35.922Z,4.60
2023-04-22T20:02:04.724Z,5.87
2023-04-22T20:04:34.086Z,6.33
2023-04-22T20:07:04.934Z,5.50
2023-04-22T20:09:34.261Z,4.90
2023-04-22T20:12:05.132Z,4.90
2023-04-22T20:14:34.204Z,4.73
2023-04-22T20:17:04.302Z,4.30
2023-04-22T20:19:33.550Z,4.77
2023-04-22T20:22:02.939Z,4.50
2023-04-22T20:24:36.158Z,4.53
2023-04-22T20:27:06.720Z,4.77
2023-04-22T20:29:38.483Z,4.83
2023-04-22T20:32:07.607Z,5.33
2023-04-22T20:34:36.379Z,5.20
2023-04-22T20:37:10.040Z,5.10
2023-04-22T20:39:39.445Z,5.73
2023-04-22T20:42:10.899Z,5.50
2023-04-22T20:44:39.761Z,5.77
2023-04-22T20:47:08.166Z,5.17
2023-04-22T20:49:40.521Z,5.57
2023-04-22T20:52:09.312Z,5.50
2023-04-22T20:54:37.740Z,5.37
2023-04-22T20:57:07.410Z,4.80
2023-04-22T20:59:37.537Z,6.07
2023-04-22T21:02:06.730Z,5.13
2023-04-22T21:04:36.418Z,6.00
2023-04-22T21:07:07.409Z,5.57
2023-04-22T21:09:36.221Z,5.57
2023-04-22T21:12:05.005Z,5.53
2023-04-22T21:14:33.945Z,5.37
2023-04-22T21:17:05.978Z,5.83
2023-04-22T21:19:35.393Z,5.13
2023-04-22T21:22:06.437Z,5.63
2023-04-22T21:24:35.688Z,5.47
2023-04-22T21:27:04.322Z,5.43
2023-04-22T21:29:33.260Z,6.07
2023-04-22T21:32:09.373Z,6.20
2023-04-22T21:34:39.866Z,6.20
2023-04-22T21:37:08.968Z,6.17
2023-04-22T21:39:37.553Z,5.63
2023-04-22T21:42:08.794Z,6.77
2023-04-22T21:44:38.387Z,5.87
2023-04-22T21:47:07.187Z,5.77
2023-04-22T21:49:35.836Z,6.33
2023-04-22T21:52:05.650Z,6.37
2023-04-22T21:54:33.772Z,5.70
2023-04-22T21:57:02.563Z,5.57
2023-04-22T21:59:31.833Z,5.17
2023-04-22T22:02:00.441Z,4.73
2023-04-22T22:04:28.737Z,5.07
2023-04-22T22:06:57.196Z,4.97
2023-04-22T22:09:27.134Z,5.20
2023-04-22T22:11:55.598Z,4.90
2023-04-22T22:14:23.943Z,5.53
2023-04-22T22:16:53.744Z,4.90
2023-04-22T22:19:22.428Z,4.90
2023-04-22T22:21:50.642Z,5.33
2023-04-22T22:24:19.211Z,5.20
2023-04-22T22:26:48.995Z,4.70
2023-04-22T22:29:17.214Z,4.70
2023-04-22T22:31:46.469Z,5.37
2023-04-22T22:34:15.027Z,5.60
2023-04-22T22:36:43.136Z,6.27
2023-04-22T22:39:14.462Z,6.37
2023-04-22T22:41:43.958Z,6.03
2023-04-22T22:44:13.749Z,5.67
2023-04-22T22:46:42.028Z,6.40
2023-04-22T22:49:10.856Z,6.03
2023-04-22T22:51:38.951Z,6.13
2023-04-22T22:54:07.377Z,5.73
2023-04-22T22:56:35.823Z,5.47
2023-04-22T22:59:04.481Z,5.37
2023-04-22T23:01:34.178Z,5.83
2023-04-22T23:04:02.481Z,5.23
2023-04-22T23:06:31.964Z,5.63
2023-04-22T23:09:00.108Z,5.60
2023-04-22T23:11:28.222Z,5.60
2023-04-22T23:13:56.413Z,5.93
2023-04-22T23:16:24.801Z,5.97
2023-04-22T23:18:56.139Z,6.40
2023-04-22T23:21:25.000Z,6.53
2023-04-22T23:23:53.973Z,6.80
2023-04-22T23:26:22.613Z,7.60
2023-04-22T23:28:51.206Z,7.33
2023-04-22T23:31:20.534Z,7.50
2023-04-22T23:33:51.396Z,6.80
2023-04-22T23:36:22.725Z,7.03
2023-04-22T23:38:51.054Z,8.33
2023-04-22T23:41:19.895Z,7.90
2023-04-22T23:43:48.602Z,7.77
2023-04-22T23:46:18.507Z,7.77
2023-04-22T23:48:47.395Z,8.07
2023-04-22T23:51:16.377Z,8.60
2023-04-22T23:53:46.735Z,9.00
2023-04-22T23:56:20.263Z,7.30
2023-04-22T23:58:49.149Z,8.73
